Time;durP1;ratioP1;P1;durP2;ratioP2;P2;SDS_P1;SDS_P2;PMS_P1;PMS_P2;Temp;Humidity;BMP_temperature;BMP_pressure;BME280_temperature;BME280_humidity;BME280_pressure;Samples;Min_cycle;Max_cycle;Signal;HPM_P1;HPM_P2
2022/02/13 00:00:50;;;;;;;8.68;3.85;;;;;;;5.04;44.51;96015.19;5053758;28;20121;-64
2022/02/13 00:03:15;;;;;;;5.40;3.28;;;;;;;4.87;44.84;95993.38;5053791;28;20452;-64
2022/02/13 00:05:41;;;;;;;4.90;3.28;;;;;;;5.06;45.00;96013.09;5053559;28;20082;-64
2022/02/13 00:08:06;;;;;;;4.45;2.50;;;;;;;4.95;44.70;95993.72;5053764;28;20028;-63
2022/02/13 00:10:32;;;;;;;4.10;2.78;;;;;;;4.86;44.63;95975.94;5053203;28;20041;-63
2022/02/13 00:12:57;;;;;;;4.25;2.83;;;;;;;4.97;44.30;95987.44;5053194;28;20456;-63
2022/02/13 00:15:23;;;;;;;3.28;2.40;;;;;;;4.82;44.54;95965.13;5053467;28;20032;-64
2022/02/13 00:17:48;;;;;;;3.78;2.80;;;;;;;4.77;44.04;95956.38;5053420;28;20021;-63
2022/02/13 00:20:14;;;;;;;4.20;2.90;;;;;;;4.89;44.38;95971.00;5053025;28;20033;-64
2022/02/13 00:22:39;;;;;;;4.28;2.72;;;;;;;4.89;44.29;95975.47;5053348;28;20017;-64
2022/02/13 00:25:05;;;;;;;5.03;2.72;;;;;;;4.83;43.91;95950.09;5059122;28;20389;-63
2022/02/13 00:27:30;;;;;;;5.05;2.67;;;;;;;4.83;44.08;95955.38;5064784;28;20036;-63
2022/02/13 00:29:56;;;;;;;3.95;2.40;;;;;;;4.94;43.85;95972.88;5072962;28;20029;-63
2022/02/13 00:32:23;;;;;;;3.95;2.58;;;;;;;4.87;44.18;95956.47;5055213;28;20020;-63
2022/02/13 00:34:49;;;;;;;3.72;2.30;;;;;;;5.06;43.87;95981.44;5073106;28;20034;-63
2022/02/13 00:37:14;;;;;;;4.20;2.70;;;;;;;4.97;43.90;95961.06;5072986;28;20016;-63
2022/02/13 00:39:39;;;;;;;2.28;1.77;;;;;;;4.92;43.55;95940.72;5054446;28;20055;-63
2022/02/13 00:42:05;;;;;;;3.03;1.83;;;;;;;5.12;43.46;95980.47;5066469;28;20078;-63
2022/02/13 00:44:30;;;;;;;2.97;1.80;;;;;;;5.08;43.04;95963.53;5036660;28;20021;-63
2022/02/13 00:46:56;;;;;;;3.70;1.50;;;;;;;4.90;42.79;95933.03;5053098;28;20028;-64
2022/02/13 00:49:22;;;;;;;2.25;1.55;;;;;;;4.86;42.72;95907.41;5034819;28;20148;-62
2022/02/13 00:51:49;;;;;;;1.65;1.35;;;;;;;5.08;42.79;95934.53;5052339;28;20560;-62
2022/02/13 00:54:14;;;;;;;2.38;1.42;;;;;;;5.23;42.26;95965.53;5052851;28;20041;-64
2022/02/13 00:56:39;;;;;;;2.67;1.13;;;;;;;5.05;41.74;95921.84;5059480;28;20052;-63
2022/02/13 00:59:05;;;;;;;2.45;1.38;;;;;;;5.02;41.40;95908.38;5052215;28;20385;-65
2022/02/13 01:01:30;;;;;;;1.55;1.02;;;;;;;5.04;41.27;95911.56;5052473;28;20029;-63
2022/02/13 01:03:56;;;;;;;2.10;0.82;;;;;;;5.41;40.94;95967.00;5052716;28;20025;-64
2022/02/13 01:06:21;;;;;;;2.78;1.38;;;;;;;5.33;40.66;95939.25;5034742;28;20489;-64
2022/02/13 01:08:47;;;;;;;1.08;0.98;;;;;;;5.46;40.72;95962.56;5052324;28;20466;-62
2022/02/13 01:11:13;;;;;;;2.10;1.08;;;;;;;5.32;40.61;95937.63;5040632;28;20351;-64
2022/02/13 01:13:38;;;;;;;1.27;0.90;;;;;;;5.27;40.62;95923.59;5052276;28;20083;-64
2022/02/13 01:16:04;;;;;;;1.15;0.85;;;;;;;5.31;40.41;95929.97;5052452;28;20444;-64
2022/02/13 01:18:29;;;;;;;2.80;1.20;;;;;;;5.19;39.86;95906.41;5052115;28;20029;-62
2022/02/13 01:20:55;;;;;;;1.73;0.98;;;;;;;5.11;40.04;95902.38;5052241;28;20033;-64
2022/02/13 01:23:21;;;;;;;1.60;1.15;;;;;;;5.07;40.04;95897.88;5052174;28;20051;-63
2022/02/13 01:25:46;;;;;;;1.40;1.00;;;;;;;5.06;39.86;95875.97;5061526;28;20643;-64
2022/02/13 01:28:12;;;;;;;1.75;1.13;;;;;;;5.15;39.98;95890.28;5056624;28;20032;-64
2022/02/13 01:30:38;;;;;;;1.95;1.25;;;;;;;5.56;39.60;95953.94;5051944;28;20683;-64
2022/02/13 01:33:04;;;;;;;1.48;0.88;;;;;;;5.58;39.29;95953.69;5052264;28;20074;-65
2022/02/13 01:35:30;;;;;;;2.78;1.38;;;;;;;5.42;39.10;95918.47;5051997;28;20035;-62
2022/02/13 01:37:56;;;;;;;2.47;1.10;;;;;;;5.54;39.10;95940.22;5051934;28;20025;-63
2022/02/13 01:40:21;;;;;;;2.08;1.00;;;;;;;5.61;39.26;95956.63;5056308;28;20101;-63
2022/02/13 01:42:47;;;;;;;3.70;0.95;;;;;;;5.55;38.88;95946.28;5060028;28;20023;-63
2022/02/13 01:45:12;;;;;;;0.98;0.82;;;;;;;5.37;38.63;95916.56;5051791;28;20381;-62
2022/02/13 01:47:38;;;;;;;1.13;0.80;;;;;;;5.46;38.60;95945.94;5033822;28;20029;-63
2022/02/13 01:50:07;;;;;;;2.53;0.80;;;;;;;5.35;38.58;95917.88;5033640;28;20381;-65
2022/02/13 01:52:33;;;;;;;1.77;1.00;;;;;;;5.34;38.78;95914.47;5051503;28;20033;-62
2022/02/13 01:54:58;;;;;;;0.95;0.70;;;;;;;5.39;38.35;95935.59;5052955;28;20021;-63
2022/02/13 01:57:25;;;;;;;1.05;0.70;;;;;;;5.40;38.00;95923.22;5062283;28;20053;-65
2022/02/13 01:59:52;;;;;;;0.98;0.82;;;;;;;5.56;38.29;95951.31;5033212;28;20140;-62
2022/02/13 02:02:18;;;;;;;2.05;1.02;;;;;;;5.30;38.40;95913.38;5032633;28;20462;-62
2022/02/13 02:04:43;;;;;;;2.85;1.17;;;;;;;5.48;37.98;95930.66;5033525;28;20040;-63
2022/02/13 02:07:09;;;;;;;1.02;0.80;;;;;;;5.50;37.79;95933.84;5051423;28;20035;-64
2022/02/13 02:09:35;;;;;;;1.70;0.75;;;;;;;5.41;37.71;95920.31;5032971;28;20036;-63
2022/02/13 02:12:04;;;;;;;1.15;0.82;;;;;;;5.34;38.28;95889.94;5063102;28;20025;-65
2022/02/13 02:14:30;;;;;;;2.03;1.00;;;;;;;5.55;37.49;95938.38;5050915;28;20028;-63
2022/02/13 02:16:55;;;;;;;1.52;0.80;;;;;;;5.59;37.53;95942.09;5051229;28;20036;-63
2022/02/13 02:19:21;;;;;;;1.35;0.80;;;;;;;5.57;37.79;95934.41;5051189;28;20033;-63
2022/02/13 02:21:46;;;;;;;1.90;0.65;;;;;;;5.35;37.81;95904.69;5050997;28;20549;-63
2022/02/13 02:24:14;;;;;;;0.82;0.70;;;;;;;5.49;37.68;95924.34;5051042;28;20029;-63
2022/02/13 02:26:39;;;;;;;1.80;0.82;;;;;;;5.53;37.44;95930.72;5054293;28;20033;-63
2022/02/13 02:29:05;;;;;;;0.98;0.80;;;;;;;5.12;37.72;95864.44;5050757;28;20040;-63
2022/02/13 02:31:31;;;;;;;1.33;0.90;;;;;;;5.50;37.70;95935.69;5050489;28;20024;-63
2022/02/13 02:33:56;;;;;;;1.35;0.80;;;;;;;5.33;37.17;95904.16;5050789;28;20033;-63
2022/02/13 02:36:21;;;;;;;1.38;1.10;;;;;;;5.46;37.25;95925.63;5050763;28;20036;-63
2022/02/13 02:38:47;;;;;;;2.05;0.80;;;;;;;5.52;37.49;95931.75;5050522;28;20037;-63
2022/02/13 02:41:13;;;;;;;3.33;1.38;;;;;;;5.48;37.41;95923.56;5035515;28;20021;-63
2022/02/13 02:43:39;;;;;;;0.88;0.73;;;;;;;5.35;37.40;95902.06;5050576;28;20033;-63
2022/02/13 02:46:05;;;;;;;1.13;0.73;;;;;;;5.35;37.63;95902.06;5050663;28;20033;-63
2022/02/13 02:48:33;;;;;;;1.23;0.82;;;;;;;5.52;37.66;95926.47;5050400;28;20142;-63
2022/02/13 02:50:59;;;;;;;2.42;0.80;;;;;;;5.48;37.30;95923.56;5050533;28;20595;-63
2022/02/13 02:53:24;;;;;;;1.52;0.82;;;;;;;5.49;37.42;95934.91;5050449;28;20029;-63
2022/02/13 02:55:49;;;;;;;0.98;0.73;;;;;;;5.52;37.35;95923.03;5052791;28;20123;-63
2022/02/13 02:58:15;;;;;;;0.73;0.60;;;;;;;5.52;37.07;95926.47;5050229;28;20459;-63
2022/02/13 03:00:40;;;;;;;1.02;0.80;;;;;;;5.16;37.02;95862.88;5050262;28;20029;-63
2022/02/13 03:03:05;;;;;;;2.13;0.80;;;;;;;5.28;37.14;95891.72;5032549;28;20031;-63
2022/02/13 03:05:31;;;;;;;1.83;0.90;;;;;;;5.43;37.30;95920.88;5050319;28;20037;-63
2022/02/13 03:07:57;;;;;;;2.00;0.52;;;;;;;5.27;37.18;95886.69;5050647;28;20120;-63
2022/02/13 03:10:22;;;;;;;2.35;0.88;;;;;;;5.30;37.63;95902.03;5033514;28;20106;-63
2022/02/13 03:12:48;;;;;;;0.75;0.70;;;;;;;5.47;37.40;95921.16;5050158;28;20036;-62
2022/02/13 03:15:13;;;;;;;1.15;0.80;;;;;;;5.36;37.58;95911.56;5036167;28;20526;-64
2022/02/13 03:17:38;;;;;;;2.60;0.90;;;;;;;5.40;37.46;95920.56;5054633;28;20029;-63
2022/02/13 03:20:04;;;;;;;2.00;0.88;;;;;;;5.01;37.72;95868.00;5054267;28;20029;-63
2022/02/13 03:22:30;;;;;;;1.58;0.70;;;;;;;5.31;37.52;95911.53;5036322;28;20701;-63
2022/02/13 03:24:58;;;;;;;1.38;0.73;;;;;;;5.35;37.73;95925.81;5054415;28;20025;-63
2022/02/13 03:27:25;;;;;;;1.60;0.80;;;;;;;5.32;37.42;95918.38;5055220;28;20025;-63
2022/02/13 03:29:50;;;;;;;1.10;0.90;;;;;;;5.12;37.31;95879.47;5054151;28;20064;-64
2022/02/13 03:32:16;;;;;;;1.00;0.80;;;;;;;5.15;37.36;95889.50;5036218;28;20071;-62
2022/02/13 03:34:41;;;;;;;2.15;0.80;;;;;;;5.34;37.34;95924.22;5036234;28;20516;-63
2022/02/13 03:37:06;;;;;;;1.80;0.80;;;;;;;5.39;37.12;95918.97;5054017;28;20028;-63
2022/02/13 03:39:32;;;;;;;0.80;0.60;;;;;;;5.32;36.88;95913.09;5053216;28;20529;-63
2022/02/13 03:41:57;;;;;;;1.10;0.85;;;;;;;5.28;37.28;95904.13;5035637;28;20021;-63
2022/02/13 03:44:23;;;;;;;2.10;0.88;;;;;;;5.20;37.02;95892.97;5053745;28;20029;-63
2022/02/13 03:46:50;;;;;;;1.52;1.02;;;;;;;5.21;37.20;95891.91;5054026;28;20420;-63
2022/02/13 03:49:15;;;;;;;1.05;0.90;;;;;;;5.16;36.93;95886.59;5053780;28;20106;-63
2022/02/13 03:51:41;;;;;;;1.70;0.75;;;;;;;5.12;36.81;95882.91;5053584;28;20092;-63
2022/02/13 03:54:06;;;;;;;1.92;0.60;;;;;;;4.99;36.70;95864.84;5053884;28;20100;-63
2022/02/13 03:56:32;;;;;;;1.30;0.70;;;;;;;4.90;36.67;95855.78;5061785;28;20024;-63
2022/02/13 03:58:57;;;;;;;0.70;0.70;;;;;;;5.32;36.54;95915.75;5053422;28;20028;-63
2022/02/13 04:01:23;;;;;;;1.25;0.73;;;;;;;5.08;36.40;95876.53;5053589;28;20029;-63
2022/02/13 04:03:48;;;;;;;1.00;0.80;;;;;;;5.27;36.68;95902.50;5053819;28;20100;-63
2022/02/13 04:06:14;;;;;;;0.68;0.60;;;;;;;5.37;36.38;95919.22;5053882;28;20489;-63
2022/02/13 04:08:40;;;;;;;2.15;0.80;;;;;;;5.40;36.39;95917.94;5035527;28;20057;-63
2022/02/13 04:11:06;;;;;;;2.38;0.68;;;;;;;5.36;36.35;95924.75;5059150;28;20444;-64
2022/02/13 04:13:31;;;;;;;1.23;0.90;;;;;;;5.07;36.47;95887.34;5063289;28;20461;-64
2022/02/13 04:15:57;;;;;;;1.35;0.95;;;;;;;5.11;36.22;95888.41;5053381;28;20025;-63
2022/02/13 04:18:23;;;;;;;1.27;0.68;;;;;;;5.33;36.47;95923.44;5053287;28;20029;-64
2022/02/13 04:20:48;;;;;;;1.42;0.82;;;;;;;5.13;36.30;95900.31;5053109;28;20385;-63
2022/02/13 04:23:14;;;;;;;2.90;0.80;;;;;;;5.26;35.89;95916.75;5053274;28;20025;-63
2022/02/13 04:25:40;;;;;;;1.10;0.85;;;;;;;5.24;35.68;95908.31;5054309;28;20488;-63
2022/02/13 04:28:05;;;;;;;1.52;0.80;;;;;;;5.26;36.12;95912.28;5058346;28;20100;-64
2022/02/13 04:30:31;;;;;;;1.08;0.68;;;;;;;5.26;36.07;95907.00;5052584;28;20035;-65
2022/02/13 04:32:57;;;;;;;0.60;0.60;;;;;;;5.24;35.68;95903.03;5034995;28;20531;-65
2022/02/13 04:35:23;;;;;;;1.48;0.65;;;;;;;5.11;35.58;95896.31;5053129;28;20021;-62
2022/02/13 04:37:53;;;;;;;1.30;0.80;;;;;;;4.95;35.96;95869.00;5053183;28;20025;-64
2022/02/13 04:40:19;;;;;;;0.70;0.50;;;;;;;5.20;35.82;95908.00;5035005;28;20021;-63
2022/02/13 04:42:45;;;;;;;0.98;0.50;;;;;;;5.19;35.93;95898.50;5041515;28;20436;-63
2022/02/13 04:45:11;;;;;;;2.00;0.80;;;;;;;5.09;36.12;95893.13;5035072;28;20025;-65
2022/02/13 04:47:36;;;;;;;1.38;0.85;;;;;;;5.07;35.91;95882.06;5052942;28;20495;-63
2022/02/13 04:50:03;;;;;;;3.05;0.70;;;;;;;4.87;35.89;95851.03;5034580;28;20029;-63
2022/02/13 04:52:29;;;;;;;1.13;0.55;;;;;;;5.06;36.02;95875.16;5052846;28;20051;-63
2022/02/13 04:54:54;;;;;;;0.77;0.75;;;;;;;4.87;35.83;95851.03;5052721;28;20457;-63
2022/02/13 04:57:20;;;;;;;0.70;0.52;;;;;;;5.18;35.82;95900.34;5058575;28;20033;-63
2022/02/13 04:59:45;;;;;;;0.85;0.60;;;;;;;5.18;36.05;95884.53;5052483;28;20108;-62
2022/02/13 05:02:10;;;;;;;0.98;0.50;;;;;;;4.91;35.77;95844.19;5052458;28;20025;-63
2022/02/13 05:04:36;;;;;;;0.88;0.68;;;;;;;5.09;35.73;95875.47;5052590;28;20025;-62
2022/02/13 05:07:01;;;;;;;1.80;0.75;;;;;;;5.22;35.57;95890.91;5052603;28;20584;-63
2022/02/13 05:09:27;;;;;;;0.55;0.50;;;;;;;5.12;35.76;95864.44;5052043;28;20033;-64
2022/02/13 05:11:52;;;;;;;3.75;1.02;;;;;;;5.20;35.54;95871.06;5062218;28;20032;-63
2022/02/13 05:14:18;;;;;;;1.30;0.82;;;;;;;5.15;35.11;95848.09;5055900;28;20017;-63
2022/02/13 05:16:43;;;;;;;3.05;0.70;;;;;;;5.34;35.25;95882.00;5052519;28;20033;-63
2022/02/13 05:19:09;;;;;;;1.02;0.57;;;;;;;5.22;35.26;95846.06;5051977;28;20035;-63
2022/02/13 05:21:34;;;;;;;7.35;1.15;;;;;;;5.19;34.95;95833.34;5052243;28;20048;-63
2022/02/13 05:24:00;;;;;;;1.70;0.80;;;;;;;5.39;34.68;95856.47;5034458;28;20025;-63
2022/02/13 05:26:25;;;;;;;0.77;0.60;;;;;;;5.42;34.79;95876.25;5057873;28;20024;-63
2022/02/13 05:28:54;;;;;;;0.70;0.50;;;;;;;5.45;34.72;95865.19;5059040;28;20051;-63
2022/02/13 05:31:19;;;;;;;1.17;0.50;;;;;;;5.22;34.36;95824.97;5052002;28;20029;-63
2022/02/13 05:33:44;;;;;;;0.50;0.40;;;;;;;5.25;34.23;95833.41;5051766;28;20027;-64
2022/02/13 05:36:10;;;;;;;2.40;0.60;;;;;;;5.51;34.11;95866.03;5052141;28;20025;-63
2022/02/13 05:38:35;;;;;;;1.05;0.45;;;;;;;5.20;34.41;95813.84;5063641;22;20012;-67
2022/02/13 05:41:01;;;;;;;1.02;0.50;;;;;;;5.33;33.84;95849.56;5033290;28;20527;-68
2022/02/13 05:43:28;;;;;;;1.75;0.60;;;;;;;5.38;33.96;95844.31;5033688;28;20033;-67
2022/02/13 05:45:54;;;;;;;1.00;0.60;;;;;;;5.35;33.80;95844.81;5034014;28;20036;-67
2022/02/13 05:48:19;;;;;;;1.05;0.70;;;;;;;5.33;34.18;95838.22;5033857;28;20675;-67
2022/02/13 05:50:45;;;;;;;1.38;0.55;;;;;;;5.34;34.17;95842.44;5033443;28;20124;-68
2022/02/13 05:53:10;;;;;;;2.03;0.50;;;;;;;5.29;33.48;95839.75;5033465;28;20032;-68
2022/02/13 05:55:36;;;;;;;0.77;0.60;;;;;;;5.30;33.72;95828.94;5034158;28;20255;-67
2022/02/13 05:58:02;;;;;;;4.45;0.80;;;;;;;5.41;33.31;95851.72;5033831;28;20025;-68
2022/02/13 06:00:27;;;;;;;0.65;0.45;;;;;;;5.15;33.59;95818.28;5034084;28;20088;-67
2022/02/13 06:02:52;;;;;;;1.30;0.57;;;;;;;5.11;32.71;95878.66;5034140;28;20021;-67
2022/02/13 06:05:18;;;;;;;0.60;0.50;;;;;;;4.74;33.48;95851.41;5051752;28;20082;-67
2022/02/13 06:07:43;;;;;;;1.10;0.68;;;;;;;5.11;33.26;95880.50;5051503;28;20025;-67
2022/02/13 06:10:11;;;;;;;1.55;0.60;;;;;;;4.88;33.09;95866.59;5033238;28;20031;-68
2022/02/13 06:12:37;;;;;;;1.17;0.70;;;;;;;4.74;33.51;95868.03;5050737;28;20166;-68
2022/02/13 06:15:04;;;;;;;3.88;1.00;;;;;;;4.79;33.06;95875.19;5051164;28;20584;-68
2022/02/13 06:17:30;;;;;;;1.50;1.00;;;;;;;5.09;32.98;95859.66;5051102;28;20025;-67
2022/02/13 06:19:55;;;;;;;1.88;0.80;;;;;;;5.25;32.96;95867.69;5033005;28;20086;-67
2022/02/13 06:22:21;;;;;;;2.00;1.08;;;;;;;5.42;33.05;95890.22;5050966;28;20043;-67
2022/02/13 06:24:46;;;;;;;1.45;0.80;;;;;;;5.46;33.07;95872.06;5051105;28;20060;-67
2022/02/13 06:27:11;;;;;;;1.05;0.80;;;;;;;5.39;32.98;95874.13;5032710;28;20024;-69
2022/02/13 06:29:37;;;;;;;1.23;0.80;;;;;;;5.41;32.89;95869.38;5032668;28;20470;-68
2022/02/13 06:32:02;;;;;;;2.92;0.95;;;;;;;5.50;33.05;95881.06;5050740;28;20033;-68
2022/02/13 06:34:28;;;;;;;1.85;0.60;;;;;;;5.37;32.87;95849.84;5050983;28;20016;-67
2022/02/13 06:36:53;;;;;;;1.13;0.70;;;;;;;5.35;33.11;95847.47;5032669;28;20017;-67
2022/02/13 06:39:19;;;;;;;2.25;0.50;;;;;;;5.42;33.12;95861.22;5050497;28;20159;-67
2022/02/13 06:41:45;;;;;;;1.33;0.70;;;;;;;5.33;32.68;95835.59;5032109;28;20052;-67
2022/02/13 06:44:10;;;;;;;1.83;0.90;;;;;;;5.31;33.19;95827.09;5050350;28;20088;-68
2022/02/13 06:46:36;;;;;;;1.13;0.70;;;;;;;5.56;33.03;95866.06;5032889;28;20303;-68
2022/02/13 06:49:01;;;;;;;3.22;1.10;;;;;;;5.58;32.90;95867.41;5050042;28;20737;-67
2022/02/13 06:51:26;;;;;;;1.05;0.90;;;;;;;5.60;32.88;95867.94;5032649;28;20036;-69
2022/02/13 06:53:52;;;;;;;2.15;0.95;;;;;;;5.48;33.08;95839.13;5050565;28;20021;-67
2022/02/13 06:56:17;;;;;;;1.38;1.05;;;;;;;5.60;33.16;95852.13;5050241;28;20062;-66
2022/02/13 06:58:43;;;;;;;3.78;1.00;;;;;;;5.44;33.00;95827.47;5050182;28;20021;-66
2022/02/13 07:01:09;;;;;;;2.08;0.75;;;;;;;5.68;32.55;95856.94;5032550;28;20025;-71
2022/02/13 07:03:35;;;;;;;1.13;0.70;;;;;;;5.77;32.38;95869.63;5032712;28;20090;-70
2022/02/13 07:06:02;;;;;;;1.88;0.88;;;;;;;5.74;32.51;95855.09;5032647;28;20029;-67
2022/02/13 07:08:28;;;;;;;1.95;1.10;;;;;;;5.79;31.96;95855.13;5050218;28;20017;-67
2022/02/13 07:10:54;;;;;;;1.42;1.20;;;;;;;5.78;32.46;95829.75;5032994;28;20024;-65
2022/02/13 07:13:19;;;;;;;1.17;1.08;;;;;;;6.02;32.30;95869.78;5031974;28;20104;-65
2022/02/13 07:15:44;;;;;;;1.63;1.40;;;;;;;6.05;31.74;95856.09;5032257;28;20029;-64
2022/02/13 07:18:10;;;;;;;1.23;0.90;;;;;;;6.17;32.05;95869.88;5032500;28;20041;-65
2022/02/13 07:20:35;;;;;;;1.10;0.88;;;;;;;6.21;32.27;95859.59;5032040;28;20041;-64
2022/02/13 07:23:01;;;;;;;0.75;0.68;;;;;;;6.29;31.33;95872.28;5050200;28;20036;-63
2022/02/13 07:25:27;;;;;;;1.63;1.10;;;;;;;6.34;31.50;95869.66;5050397;28;20466;-64
2022/02/13 07:27:52;;;;;;;1.50;1.08;;;;;;;6.34;31.40;95855.66;5049849;28;20029;-63
2022/02/13 07:30:18;;;;;;;1.27;1.00;;;;;;;6.41;31.11;95856.22;5049356;28;20038;-67
2022/02/13 07:32:44;;;;;;;3.20;1.00;;;;;;;6.58;31.26;95863.94;5050448;28;20055;-65
2022/02/13 07:35:12;;;;;;;2.60;0.98;;;;;;;6.75;31.05;95870.56;5051049;28;20055;-68
2022/02/13 07:37:38;;;;;;;1.27;1.13;;;;;;;6.73;30.76;95850.75;5050861;28;20033;-68
2022/02/13 07:40:04;;;;;;;3.00;1.00;;;;;;;6.88;30.67;95865.84;5050329;28;20099;-65
2022/02/13 07:42:30;;;;;;;3.45;1.05;;;;;;;6.72;30.83;95817.44;5050231;28;20033;-67
2022/02/13 07:44:55;;;;;;;3.22;1.63;;;;;;;6.96;30.89;95844.97;5032599;28;20028;-70
2022/02/13 07:47:21;;;;;;;1.77;1.00;;;;;;;7.18;30.36;95863.25;5032143;28;20124;-65
2022/02/13 07:49:46;;;;;;;1.60;1.00;;;;;;;7.19;30.54;95837.56;5049559;28;20389;-65
2022/02/13 07:52:12;;;;;;;1.15;0.90;;;;;;;7.41;30.35;95855.81;5049906;28;20033;-64
2022/02/13 07:54:39;;;;;;;3.33;1.33;;;;;;;7.43;30.25;95845.78;5031997;28;20071;-64
2022/02/13 07:57:04;;;;;;;2.03;1.10;;;;;;;7.50;29.82;95846.28;5049497;28;20035;-65
2022/02/13 07:59:30;;;;;;;2.53;1.10;;;;;;;7.52;29.87;95830.91;5049348;28;20037;-65
2022/02/13 08:01:55;;;;;;;1.52;1.08;;;;;;;7.61;29.93;95831.97;5052596;28;20371;-65
2022/02/13 08:04:21;;;;;;;1.70;0.90;;;;;;;7.87;29.97;95850.44;5053608;28;20049;-65
2022/02/13 08:06:47;;;;;;;4.15;1.15;;;;;;;7.94;29.72;95835.09;5053648;28;20024;-65
2022/02/13 08:09:13;;;;;;;3.22;0.88;;;;;;;7.81;29.04;95826.63;5035472;28;20072;-71
2022/02/13 08:11:39;;;;;;;2.40;1.00;;;;;;;8.22;29.78;95842.38;5053110;28;20032;-69
2022/02/13 08:14:05;;;;;;;6.10;0.98;;;;;;;8.18;28.92;95812.19;5052019;28;20060;-65
2022/02/13 08:16:30;;;;;;;1.67;1.40;;;;;;;8.47;28.80;95830.91;5053440;28;20065;-65
2022/02/13 08:18:56;;;;;;;2.38;1.35;;;;;;;8.45;28.26;95811.06;5053204;28;20070;-68
2022/02/13 08:21:21;;;;;;;2.63;1.52;;;;;;;8.54;28.24;95810.19;5053362;28;20533;-65
2022/02/13 08:23:47;;;;;;;2.85;1.70;;;;;;;8.67;27.84;95823.91;5035367;28;20029;-65
2022/02/13 08:26:15;;;;;;;3.90;1.65;;;;;;;8.79;28.13;95817.19;5053333;28;20033;-70
2022/02/13 08:28:40;;;;;;;2.20;1.50;;;;;;;8.73;28.34;95812.19;5052552;28;20036;-73
2022/02/13 08:31:06;;;;;;;2.10;1.38;;;;;;;9.01;27.61;95816.78;5053047;28;20033;-73
2022/02/13 08:33:32;;;;;;;3.10;1.25;;;;;;;9.16;27.65;95799.94;5053102;28;20021;-69
2022/02/13 08:35:58;;;;;;;2.72;1.73;;;;;;;9.33;27.23;95815.47;5035285;28;20112;-67
2022/02/13 08:38:23;;;;;;;2.08;1.20;;;;;;;9.51;27.31;95813.97;5034960;28;20021;-73
2022/02/13 08:40:49;;;;;;;2.15;1.25;;;;;;;9.49;27.19;95803.63;5053025;28;20029;-75
2022/02/13 08:43:14;;;;;;;1.17;1.08;;;;;;;9.61;26.57;95792.63;5034496;28;20642;-67
2022/02/13 08:45:40;;;;;;;2.17;1.25;;;;;;;9.72;26.43;95791.44;5034647;28;20039;-67
2022/02/13 08:48:05;;;;;;;1.50;1.15;;;;;;;9.87;26.47;95780.66;5034952;28;20028;-65
2022/02/13 08:50:31;;;;;;;6.20;1.20;;;;;;;10.08;26.26;95788.38;5052230;28;20031;-66
2022/02/13 08:52:57;;;;;;;1.73;1.10;;;;;;;10.03;25.84;95788.44;5052610;28;20393;-63
2022/02/13 08:55:22;;;;;;;2.05;0.90;;;;;;;10.10;25.66;95779.06;5052783;28;20021;-69
2022/02/13 08:57:49;;;;;;;3.70;1.58;;;;;;;10.31;25.72;95794.78;5052183;28;20060;-66
2022/02/13 09:00:16;;;;;;;1.80;0.70;;;;;;;10.29;25.75;95802.28;5052088;28;20021;-65
2022/02/13 09:02:42;;;;;;;1.20;0.90;;;;;;;10.38;25.23;95796.00;5052564;28;20109;-66
2022/02/13 09:05:09;;;;;;;1.17;0.80;;;;;;;10.52;25.55;95793.44;5052520;28;20029;-65
2022/02/13 09:07:36;;;;;;;2.15;0.95;;;;;;;10.59;25.61;95796.53;5052636;28;20029;-66
2022/02/13 09:10:03;;;;;;;2.35;0.90;;;;;;;10.72;25.74;95794.25;5034270;28;20127;-64
2022/02/13 09:12:29;;;;;;;1.80;1.10;;;;;;;10.30;24.75;95716.09;5033624;28;20070;-64
2022/02/13 09:14:55;;;;;;;6.85;1.77;;;;;;;10.54;24.56;95753.25;5052234;28;20017;-65
2022/02/13 09:17:21;;;;;;;4.10;2.33;;;;;;;10.68;24.90;95770.06;5034634;28;20473;-67
2022/02/13 09:19:47;;;;;;;3.38;1.90;;;;;;;10.94;25.62;95779.25;5052226;28;20032;-64
2022/02/13 09:22:13;;;;;;;3.13;1.90;;;;;;;11.07;24.56;95747.66;5034334;28;20678;-67
2022/02/13 09:24:39;;;;;;;2.65;1.67;;;;;;;11.25;24.65;95775.31;5052578;28;20054;-66
2022/02/13 09:27:05;;;;;;;2.25;1.88;;;;;;;11.34;24.43;95763.69;5052349;28;20017;-66
2022/02/13 09:29:30;;;;;;;3.67;1.88;;;;;;;11.64;25.09;95775.69;5051295;28;20156;-66
2022/02/13 09:31:57;;;;;;;1.80;1.50;;;;;;;11.56;24.25;95746.25;5034055;28;20103;-66
2022/02/13 09:34:28;;;;;;;4.03;1.27;;;;;;;11.66;24.44;95757.50;5052162;28;20029;-67
2022/02/13 09:36:55;;;;;;;3.85;1.70;;;;;;;11.39;25.12;95689.03;5034156;28;20032;-62
2022/02/13 09:39:22;;;;;;;2.05;1.10;;;;;;;11.66;24.71;95730.06;5051639;28;20358;-66
2022/02/13 09:41:49;;;;;;;2.38;1.20;;;;;;;11.77;24.47;95726.13;5051631;28;20025;-65
2022/02/13 09:44:14;;;;;;;2.42;1.35;;;;;;;12.06;24.47;95760.50;5051459;28;20033;-65
2022/02/13 09:46:41;;;;;;;1.42;1.10;;;;;;;12.05;24.56;95734.16;5052167;28;20029;-66
2022/02/13 09:49:06;;;;;;;2.45;1.30;;;;;;;12.25;24.72;95751.59;5034412;28;20025;-65
2022/02/13 09:51:34;;;;;;;3.65;1.60;;;;;;;12.34;24.99;95744.47;5051242;28;20033;-66
2022/02/13 09:53:59;;;;;;;1.98;1.25;;;;;;;12.28;24.72;95730.44;5051739;28;20021;-66
2022/02/13 09:56:25;;;;;;;3.00;1.30;;;;;;;12.36;24.98;95740.41;5051469;28;20056;-66
2022/02/13 09:58:51;;;;;;;5.22;1.55;;;;;;;12.38;25.25;95716.88;5050877;28;20021;-67
2022/02/13 10:01:17;;;;;;;3.78;1.50;;;;;;;12.56;24.92;95719.72;5033395;28;20033;-65
2022/02/13 10:03:45;;;;;;;3.50;1.40;;;;;;;12.76;25.04;95729.91;5033652;28;20033;-66
2022/02/13 10:06:10;;;;;;;2.63;1.38;;;;;;;12.72;25.08;95731.59;5051614;28;20540;-65
2022/02/13 10:08:37;;;;;;;2.78;1.55;;;;;;;12.75;26.11;95729.13;5051264;28;20039;-65
2022/02/13 10:11:15;;;;;;;5.38;1.90;;;;;;;13.04;26.45;95719.88;5051407;28;20056;-67
2022/02/13 10:13:46;;;;;;;3.78;1.92;;;;;;;11.93;28.69;95730.13;5033019;28;20046;-67
2022/02/13 10:16:28;;;;;;;3.75;1.80;;;;;;;12.14;28.37;95719.81;5051612;28;20098;-68
2022/02/13 10:18:55;;;;;;;4.55;2.10;;;;;;;12.64;28.27;95710.97;5033229;28;20021;-68
2022/02/13 10:21:32;;;;;;;4.88;2.17;;;;;;;13.05;27.74;95710.81;5033024;28;20029;-69
2022/02/13 10:24:20;;;;;;;5.18;2.00;;;;;;;13.12;27.85;95703.13;5032674;28;20025;-67
2022/02/13 10:26:56;;;;;;;5.25;2.35;;;;;;;13.30;27.75;95701.34;5051321;28;20028;-68
2022/02/13 10:29:22;;;;;;;4.53;2.22;;;;;;;13.44;27.90;95686.03;5050379;28;20382;-67
2022/02/13 10:31:48;;;;;;;8.18;2.60;;;;;;;13.59;27.71;95694.72;5050338;28;20041;-68
2022/02/13 10:34:17;;;;;;;5.20;2.47;;;;;;;13.69;27.46;95689.91;5051124;28;20070;-69
2022/02/13 10:36:45;;;;;;;8.00;2.80;;;;;;;13.60;28.08;95677.59;5051065;28;20483;-67
2022/02/13 10:39:24;;;;;;;5.20;2.38;;;;;;;13.23;28.60;95688.44;5050690;28;20111;-68
2022/02/13 10:41:50;;;;;;;3.92;2.47;;;;;;;12.82;29.41;95666.50;5050802;28;20159;-71
2022/02/13 10:44:16;;;;;;;7.88;3.03;;;;;;;12.17;30.89;95657.88;5050361;28;20020;-71
2022/02/13 10:46:43;;;;;;;4.03;2.17;;;;;;;12.33;31.38;95673.53;5050741;28;20496;-71
2022/02/13 10:49:13;;;;;;;5.18;2.65;;;;;;;11.62;31.71;95660.63;5050503;28;20021;-71
2022/02/13 10:51:38;;;;;;;5.75;2.50;;;;;;;12.05;31.18;95656.81;5050498;28;20029;-67
2022/02/13 10:54:05;;;;;;;9.88;2.20;;;;;;;12.05;31.37;95656.81;5032429;28;20027;-69
2022/02/13 10:56:31;;;;;;;4.95;2.03;;;;;;;12.56;30.67;95635.09;5051131;28;20017;-67
2022/02/13 10:58:59;;;;;;;4.22;2.40;;;;;;;12.32;31.67;95639.94;5050313;28;20036;-66
2022/02/13 11:01:27;;;;;;;9.00;2.97;;;;;;;12.66;31.46;95639.41;5050731;28;20098;-70
2022/02/13 11:03:57;;;;;;;5.05;2.67;;;;;;;12.27;31.56;95621.38;5032866;28;20022;-71
2022/02/13 11:06:25;;;;;;;8.20;2.55;;;;;;;12.44;30.89;95630.31;5032895;28;20104;-67
2022/02/13 11:09:19;;;;;;;5.60;2.42;;;;;;;12.90;30.55;95615.06;5050348;28;20075;-67
2022/02/13 11:11:45;;;;;;;8.07;2.70;;;;;;;13.90;29.49;95617.13;5032524;28;20036;-72
2022/02/13 11:14:34;;;;;;;6.97;2.97;;;;;;;14.07;29.09;95613.66;5032575;28;20048;-73
2022/02/13 11:17:02;;;;;;;4.57;2.60;;;;;;;13.73;29.69;95616.00;5014323;28;20036;-72
2022/02/13 11:19:29;;;;;;;4.93;2.58;;;;;;;14.18;28.82;95601.56;5032441;28;20033;-74
2022/02/13 11:21:54;;;;;;;3.53;2.10;;;;;;;12.38;31.47;95585.38;5032100;28;20110;-72
2022/02/13 11:24:25;;;;;;;3.70;2.13;;;;;;;13.24;30.82;95590.38;5050697;28;20052;-73
2022/02/13 11:26:51;;;;;;;7.00;2.75;;;;;;;14.04;29.45;95572.28;5032689;28;20078;-72
2022/02/13 11:29:16;;;;;;;6.68;2.75;;;;;;;13.00;30.84;95559.50;5031693;28;20041;-71
2022/02/13 11:31:45;;;;;;;4.45;2.22;;;;;;;13.70;30.38;95581.06;5032261;28;20017;-72
2022/02/13 11:34:35;;;;;;;5.72;2.20;;;;;;;14.25;29.66;95569.78;5032666;28;20557;-72